Time;durP1;ratioP1;P1;durP2;ratioP2;P2;SDS_P1;SDS_P2;PMS_P1;PMS_P2;Temp;Humidity;BMP_temperature;BMP_pressure;BME280_temperature;BME280_humidity;BME280_pressure;Samples;Min_cycle;Max_cycle;Signal;HPM_P1;HPM_P2
2021/01/31 00:02:01;;;;;;;13.60;10.17;;;3.20;99.90;;;;;;5029156;28;20449;-73
2021/01/31 00:04:27;;;;;;;13.40;9.63;;;3.20;99.90;;;;;;5029600;28;20548;-74
2021/01/31 00:06:55;;;;;;;13.23;10.03;;;3.20;99.90;;;;;;5029169;28;21426;-74
2021/01/31 00:09:22;;;;;;;13.50;10.70;;;3.20;99.90;;;;;;5028896;28;20456;-74
2021/01/31 00:11:49;;;;;;;13.67;10.67;;;3.20;99.90;;;;;;5028847;28;20575;-74
2021/01/31 00:14:16;;;;;;;14.80;10.70;;;3.20;99.90;;;;;;5029650;28;20905;-74
2021/01/31 00:16:42;;;;;;;11.70;10.50;;;3.20;99.90;;;;;;5029154;28;20570;-73
2021/01/31 00:19:08;;;;;;;12.20;9.77;;;3.20;99.90;;;;;;5029023;28;20535;-74
2021/01/31 00:21:35;;;;;;;12.70;9.93;;;3.10;99.90;;;;;;5028458;28;20453;-74
2021/01/31 00:24:01;;;;;;;14.93;10.00;;;3.10;99.90;;;;;;5028758;28;20912;-73
2021/01/31 00:26:28;;;;;;;13.80;11.17;;;3.10;99.90;;;;;;5028824;28;20449;-74
2021/01/31 00:28:55;;;;;;;13.40;11.17;;;3.10;99.90;;;;;;5028993;28;20555;-73
2021/01/31 00:31:21;;;;;;;14.47;11.47;;;3.10;99.90;;;;;;5027899;28;21023;-73
2021/01/31 00:33:48;;;;;;;13.43;10.90;;;3.10;99.90;;;;;;5028669;28;20473;-73
2021/01/31 00:36:14;;;;;;;16.17;11.93;;;3.10;99.90;;;;;;5029100;28;20583;-74
2021/01/31 00:38:40;;;;;;;15.80;12.03;;;3.10;99.90;;;;;;5028548;28;20524;-74
2021/01/31 00:41:07;;;;;;;15.17;11.93;;;3.10;99.90;;;;;;5027339;28;20480;-73
2021/01/31 00:43:33;;;;;;;18.37;12.30;;;3.10;99.90;;;;;;5026535;28;20544;-73
2021/01/31 00:46:00;;;;;;;17.37;13.40;;;3.10;99.90;;;;;;5022350;28;21261;-73
2021/01/31 00:48:27;;;;;;;16.67;12.33;;;3.10;99.90;;;;;;5022493;28;20527;-74
2021/01/31 00:50:53;;;;;;;13.73;11.43;;;3.00;99.90;;;;;;5027811;28;20476;-74
2021/01/31 00:53:20;;;;;;;17.37;13.47;;;3.10;99.90;;;;;;5028715;28;20455;-74
2021/01/31 00:55:46;;;;;;;16.10;13.60;;;3.10;99.90;;;;;;5028285;28;20817;-73
2021/01/31 00:58:13;;;;;;;17.10;12.93;;;3.10;99.90;;;;;;5029062;28;20548;-74
2021/01/31 01:00:40;;;;;;;18.13;13.90;;;3.10;99.90;;;;;;5021083;28;20827;-74
2021/01/31 01:03:09;;;;;;;17.53;13.83;;;3.10;99.90;;;;;;5028873;28;20453;-74
2021/01/31 01:05:35;;;;;;;18.90;13.53;;;3.00;99.90;;;;;;5028716;28;20500;-73
2021/01/31 01:08:02;;;;;;;16.97;13.23;;;3.00;99.90;;;;;;5023591;28;20487;-74
2021/01/31 01:10:30;;;;;;;19.50;13.80;;;3.10;99.90;;;;;;5028186;28;20936;-73
2021/01/31 01:12:57;;;;;;;19.53;13.37;;;3.00;99.90;;;;;;5028217;28;20461;-78
2021/01/31 01:15:26;;;;;;;18.27;13.30;;;3.10;99.90;;;;;;5028059;28;20465;-74
2021/01/31 01:17:53;;;;;;;18.63;13.77;;;3.10;99.90;;;;;;5029225;28;20541;-74
2021/01/31 01:20:20;;;;;;;18.33;13.30;;;3.10;99.90;;;;;;5028941;28;20459;-74
2021/01/31 01:22:47;;;;;;;19.37;14.10;;;3.10;99.90;;;;;;5028786;28;20483;-75
2021/01/31 01:25:15;;;;;;;18.77;13.73;;;3.20;99.90;;;;;;5029451;28;20548;-74
2021/01/31 01:27:42;;;;;;;16.50;12.77;;;3.10;99.90;;;;;;5029123;28;21166;-74
2021/01/31 01:30:10;;;;;;;14.63;11.97;;;3.10;99.90;;;;;;5028532;28;21009;-74
2021/01/31 01:32:38;;;;;;;16.93;12.63;;;3.10;99.90;;;;;;5029234;28;20535;-74
2021/01/31 01:35:05;;;;;;;18.13;12.37;;;3.10;99.90;;;;;;5028792;28;20469;-74
2021/01/31 01:37:33;;;;;;;17.73;13.20;;;3.10;99.90;;;;;;5029832;28;20611;-74
2021/01/31 01:39:59;;;;;;;16.57;12.23;;;3.10;99.90;;;;;;5028627;28;20502;-74
2021/01/31 01:42:25;;;;;;;15.73;12.50;;;3.20;99.90;;;;;;5029400;28;20453;-74
2021/01/31 01:44:52;;;;;;;20.20;13.87;;;3.10;99.90;;;;;;5029258;28;20468;-74
2021/01/31 01:47:22;;;;;;;18.97;13.47;;;3.10;99.90;;;;;;5029816;28;20445;-74
2021/01/31 01:49:51;;;;;;;17.03;12.33;;;3.10;99.90;;;;;;5029328;28;20635;-74
2021/01/31 01:52:23;;;;;;;14.67;11.27;;;3.20;99.90;;;;;;5032448;28;21027;-74
2021/01/31 01:54:54;;;;;;;14.87;12.30;;;3.20;99.90;;;;;;5033601;28;20472;-74
2021/01/31 01:57:25;;;;;;;15.27;12.07;;;3.20;99.90;;;;;;5033920;28;20447;-74
2021/01/31 01:59:54;;;;;;;16.50;12.60;;;3.20;99.90;;;;;;5032600;28;20872;-74
2021/01/31 02:02:24;;;;;;;18.33;13.27;;;3.20;99.90;;;;;;5034231;28;20457;-74
2021/01/31 02:04:51;;;;;;;16.73;12.97;;;3.20;99.90;;;;;;5033208;28;20568;-74
2021/01/31 02:07:17;;;;;;;19.47;14.20;;;3.20;99.90;;;;;;5033026;28;20531;-74
2021/01/31 02:09:46;;;;;;;17.80;14.17;;;3.10;99.90;;;;;;5032895;28;20513;-74
2021/01/31 02:12:15;;;;;;;16.87;13.03;;;3.10;99.90;;;;;;5032926;28;21015;-74
2021/01/31 02:14:44;;;;;;;18.50;13.60;;;3.10;99.90;;;;;;5033206;28;20472;-74
2021/01/31 02:17:18;;;;;;;16.40;12.27;;;3.10;99.90;;;;;;5033461;28;20448;-74
2021/01/31 02:20:22;;;;;;;18.13;13.57;;;3.00;99.90;;;;;;5032689;28;20927;-74
2021/01/31 02:23:26;;;;;;;15.10;12.70;;;3.00;99.90;;;;;;5034763;28;20547;-74
2021/01/31 02:25:59;;;;;;;17.67;13.77;;;3.00;99.90;;;;;;5032363;28;20441;-74
2021/01/31 02:28:52;;;;;;;18.17;13.90;;;3.00;99.90;;;;;;5032570;28;20452;-74
2021/01/31 02:32:10;;;;;;;15.30;12.90;;;3.00;99.90;;;;;;5031512;28;20571;-74
2021/01/31 02:34:53;;;;;;;16.10;12.07;;;3.00;99.90;;;;;;5032000;28;20827;-74
2021/01/31 02:37:31;;;;;;;20.20;13.57;;;3.00;99.90;;;;;;5031948;28;20449;-74
2021/01/31 02:40:05;;;;;;;18.57;12.20;;;3.00;99.90;;;;;;5031598;28;20950;-75
2021/01/31 02:42:39;;;;;;;17.97;13.67;;;3.00;99.90;;;;;;5032083;28;20445;-74
2021/01/31 02:45:16;;;;;;;17.60;13.50;;;2.90;99.90;;;;;;5031801;28;20469;-74
2021/01/31 02:47:47;;;;;;;18.57;14.73;;;2.90;99.90;;;;;;5031897;28;20452;-74
2021/01/31 02:50:20;;;;;;;16.77;13.37;;;2.80;99.90;;;;;;5031091;28;20480;-74
2021/01/31 02:52:53;;;;;;;18.60;13.07;;;2.80;99.90;;;;;;5032050;28;20445;-74
2021/01/31 02:55:25;;;;;;;18.10;13.57;;;2.80;99.90;;;;;;5032063;28;20572;-74
2021/01/31 02:58:00;;;;;;;19.47;12.73;;;2.70;99.90;;;;;;5031858;28;20477;-74
2021/01/31 03:00:30;;;;;;;19.10;13.67;;;2.70;99.90;;;;;;5030976;28;20523;-74
2021/01/31 03:03:01;;;;;;;18.90;12.90;;;2.70;99.90;;;;;;5030903;28;20539;-74
2021/01/31 03:05:33;;;;;;;19.87;14.57;;;2.70;99.90;;;;;;5031545;28;20545;-74
2021/01/31 03:08:06;;;;;;;18.23;12.70;;;2.60;99.90;;;;;;5031497;28;20445;-74
2021/01/31 03:10:38;;;;;;;19.00;13.50;;;2.60;99.90;;;;;;5029745;28;20491;-74
2021/01/31 03:13:10;;;;;;;17.60;13.17;;;2.60;99.90;;;;;;5030670;28;20457;-74
2021/01/31 03:15:44;;;;;;;24.10;16.07;;;2.60;99.90;;;;;;5031061;28;20551;-74
2021/01/31 03:18:14;;;;;;;18.83;13.53;;;2.60;99.90;;;;;;5031479;28;20463;-74
2021/01/31 03:20:52;;;;;;;17.40;12.53;;;2.60;99.90;;;;;;5030594;28;20445;-74
2021/01/31 03:23:23;;;;;;;20.10;14.40;;;2.60;99.90;;;;;;5031285;28;20451;-74
2021/01/31 03:25:55;;;;;;;20.00;14.07;;;2.60;99.90;;;;;;5031020;28;20463;-74
2021/01/31 03:28:22;;;;;;;19.60;14.40;;;2.60;99.90;;;;;;5031495;28;20821;-74
2021/01/31 03:30:48;;;;;;;20.37;14.63;;;2.60;99.90;;;;;;5030354;28;20561;-74
2021/01/31 03:33:17;;;;;;;21.03;14.90;;;2.60;99.90;;;;;;5030949;28;20531;-75
2021/01/31 03:35:47;;;;;;;21.37;15.23;;;2.60;99.90;;;;;;5030645;28;20469;-74
2021/01/31 03:38:17;;;;;;;20.27;14.90;;;2.60;99.90;;;;;;5031044;28;20441;-74
2021/01/31 03:40:47;;;;;;;20.37;14.97;;;2.60;99.90;;;;;;5030330;28;20528;-74
2021/01/31 03:43:13;;;;;;;21.40;14.37;;;2.60;99.90;;;;;;5030949;28;20448;-74
2021/01/31 03:45:44;;;;;;;23.77;16.53;;;2.60;99.90;;;;;;5030476;28;21039;-74
2021/01/31 03:48:15;;;;;;;22.73;14.83;;;2.60;99.90;;;;;;5030978;28;20528;-74
2021/01/31 03:50:42;;;;;;;21.50;16.10;;;2.60;99.90;;;;;;5029940;28;20479;-74
2021/01/31 03:53:10;;;;;;;22.60;15.43;;;2.60;99.90;;;;;;5031003;28;20552;-74
2021/01/31 03:55:36;;;;;;;21.20;15.20;;;2.50;99.90;;;;;;5030642;28;20887;-74
2021/01/31 03:58:05;;;;;;;24.20;16.67;;;2.60;99.90;;;;;;5030762;28;20455;-74
2021/01/31 04:00:35;;;;;;;22.07;15.40;;;2.70;99.90;;;;;;5030069;28;20440;-74
2021/01/31 04:03:08;;;;;;;23.23;15.30;;;2.70;99.90;;;;;;5032286;28;20445;-73
2021/01/31 04:05:38;;;;;;;20.40;14.30;;;2.70;99.90;;;;;;5031931;28;20479;-74
2021/01/31 04:08:07;;;;;;;20.43;15.10;;;2.60;99.90;;;;;;5035095;28;20425;-74
2021/01/31 04:10:35;;;;;;;18.13;14.50;;;2.60;99.90;;;;;;5036173;28;20538;-73
2021/01/31 04:13:04;;;;;;;21.80;14.50;;;2.70;99.90;;;;;;5034884;28;20460;-74
2021/01/31 04:15:43;;;;;;;18.13;13.83;;;2.70;99.90;;;;;;5031228;28;20473;-74
2021/01/31 04:18:10;;;;;;;18.50;14.03;;;2.70;99.90;;;;;;5030958;28;20448;-74
2021/01/31 04:20:37;;;;;;;19.63;13.57;;;2.70;99.90;;;;;;5030496;28;20527;-74
2021/01/31 04:23:04;;;;;;;16.57;13.17;;;2.70;99.90;;;;;;5030073;28;20449;-73
2021/01/31 04:25:31;;;;;;;19.30;14.37;;;2.60;99.90;;;;;;5030165;28;20480;-73
2021/01/31 04:27:58;;;;;;;18.80;13.47;;;2.60;99.90;;;;;;5030236;28;20527;-74
2021/01/31 04:30:25;;;;;;;20.90;14.70;;;2.70;99.90;;;;;;5029508;28;20482;-74
2021/01/31 04:32:51;;;;;;;17.90;13.47;;;2.70;99.90;;;;;;5030197;28;20448;-74
2021/01/31 04:35:19;;;;;;;18.93;14.33;;;2.60;99.90;;;;;;5029939;28;20516;-73
2021/01/31 04:37:46;;;;;;;20.60;14.83;;;2.60;99.90;;;;;;5029814;28;20449;-73
2021/01/31 04:40:15;;;;;;;19.43;13.93;;;2.60;99.90;;;;;;5029431;28;20956;-73
2021/01/31 04:42:42;;;;;;;19.80;13.97;;;2.60;99.90;;;;;;5029928;28;20895;-73
2021/01/31 04:45:12;;;;;;;18.83;14.23;;;2.60;99.90;;;;;;5029829;28;20551;-73
2021/01/31 04:47:43;;;;;;;17.60;14.67;;;2.50;99.90;;;;;;5029893;28;20837;-74
2021/01/31 04:50:19;;;;;;;21.83;16.20;;;2.60;99.90;;;;;;5029161;28;20939;-74
2021/01/31 04:53:08;;;;;;;22.33;15.90;;;2.60;99.90;;;;;;5031199;28;20452;-74
2021/01/31 04:55:56;;;;;;;19.33;15.23;;;2.60;99.90;;;;;;5029684;28;20464;-74
2021/01/31 04:58:26;;;;;;;18.73;13.77;;;2.50;99.90;;;;;;5029832;28;20459;-74
2021/01/31 05:00:58;;;;;;;24.80;16.20;;;2.60;99.90;;;;;;5029358;28;20447;-74
2021/01/31 05:03:26;;;;;;;18.00;13.90;;;2.60;99.90;;;;;;5029533;28;20451;-74
2021/01/31 05:05:58;;;;;;;15.87;13.10;;;2.60;99.90;;;;;;5029557;28;20544;-74
2021/01/31 05:08:27;;;;;;;22.47;16.07;;;2.60;99.90;;;;;;5029766;28;20510;-74
2021/01/31 05:10:57;;;;;;;20.73;15.10;;;2.70;99.90;;;;;;5028840;28;20512;-74
2021/01/31 05:13:35;;;;;;;19.40;13.73;;;2.70;99.90;;;;;;5029296;28;20456;-74
2021/01/31 05:16:07;;;;;;;20.83;14.90;;;2.70;99.90;;;;;;5029362;28;20444;-74
2021/01/31 05:18:35;;;;;;;18.00;14.43;;;2.70;99.90;;;;;;5029632;28;20808;-74
2021/01/31 05:21:11;;;;;;;16.50;12.87;;;2.70;99.90;;;;;;5028976;28;20871;-74
2021/01/31 05:23:41;;;;;;;16.33;11.97;;;2.80;99.90;;;;;;5029089;28;20455;-74
2021/01/31 05:26:09;;;;;;;16.90;13.10;;;2.80;99.90;;;;;;5030399;28;20454;-74
2021/01/31 05:28:38;;;;;;;15.30;11.97;;;2.80;99.90;;;;;;5033208;28;20482;-74
2021/01/31 05:31:06;;;;;;;15.97;12.50;;;2.80;99.90;;;;;;5032670;28;20626;-74
2021/01/31 05:33:48;;;;;;;17.40;12.80;;;2.80;99.90;;;;;;5032837;28;20445;-74
2021/01/31 05:36:17;;;;;;;16.47;12.33;;;2.80;99.90;;;;;;5033032;28;20464;-74
2021/01/31 05:38:46;;;;;;;15.93;11.97;;;2.80;99.90;;;;;;5033000;28;20448;-73
2021/01/31 05:41:41;;;;;;;17.00;12.00;;;2.80;99.90;;;;;;5032379;28;20464;-74
2021/01/31 05:44:10;;;;;;;15.13;11.40;;;2.80;99.90;;;;;;5032900;28;20467;-73
2021/01/31 05:46:43;;;;;;;15.33;11.73;;;2.80;99.90;;;;;;5032690;28;21074;-74
2021/01/31 05:49:29;;;;;;;16.27;12.00;;;2.80;99.90;;;;;;5032293;28;20968;-74
2021/01/31 05:51:56;;;;;;;16.17;12.70;;;2.80;99.90;;;;;;5032604;28;20491;-74
2021/01/31 05:54:27;;;;;;;16.17;11.93;;;2.80;99.90;;;;;;5032857;28;20472;-74
2021/01/31 05:56:55;;;;;;;15.30;11.57;;;2.90;99.90;;;;;;5032636;28;20444;-74
2021/01/31 05:59:22;;;;;;;14.80;12.43;;;2.80;99.90;;;;;;5032107;28;20441;-74
2021/01/31 06:01:59;;;;;;;17.77;12.30;;;2.80;99.90;;;;;;5032466;28;20450;-74
2021/01/31 06:04:26;;;;;;;14.00;11.50;;;2.80;99.90;;;;;;5032767;28;20557;-74
2021/01/31 06:07:02;;;;;;;14.53;11.87;;;2.90;99.90;;;;;;5032487;28;20467;-74
2021/01/31 06:09:36;;;;;;;15.40;11.90;;;2.90;99.90;;;;;;5032044;28;20862;-74
2021/01/31 06:12:09;;;;;;;14.97;11.83;;;2.90;99.90;;;;;;5032409;28;20858;-74
2021/01/31 06:14:38;;;;;;;16.03;12.30;;;2.80;99.90;;;;;;5032275;28;20468;-74
2021/01/31 06:17:08;;;;;;;17.90;12.70;;;2.90;99.90;;;;;;5032315;28;20445;-74
2021/01/31 06:19:37;;;;;;;15.90;12.40;;;3.00;99.90;;;;;;5031793;28;20433;-74
2021/01/31 06:22:06;;;;;;;16.27;12.10;;;3.00;99.90;;;;;;5031813;28;20444;-74
2021/01/31 06:24:43;;;;;;;18.37;12.40;;;3.00;99.90;;;;;;5032100;28;20456;-74
2021/01/31 06:27:15;;;;;;;14.07;11.60;;;3.00;99.90;;;;;;5032207;28;20527;-74
2021/01/31 06:29:50;;;;;;;13.37;10.03;;;3.10;99.90;;;;;;5031668;28;20566;-74
2021/01/31 06:32:20;;;;;;;13.87;11.37;;;3.10;99.90;;;;;;5031879;28;20480;-74
2021/01/31 06:34:50;;;;;;;13.23;11.60;;;3.10;99.90;;;;;;5031961;28;20469;-74
2021/01/31 06:37:40;;;;;;;14.53;11.23;;;3.10;99.90;;;;;;5030946;28;20544;-74
2021/01/31 06:40:22;;;;;;;13.87;10.97;;;3.10;99.90;;;;;;5031155;28;20453;-74
2021/01/31 06:42:57;;;;;;;15.10;11.10;;;3.00;99.90;;;;;;5031887;28;20440;-74
2021/01/31 06:45:33;;;;;;;16.20;12.03;;;3.00;99.90;;;;;;5031664;28;20464;-74
2021/01/31 06:48:39;;;;;;;12.93;11.07;;;3.00;99.90;;;;;;5032029;28;20517;-74
2021/01/31 06:51:16;;;;;;;16.57;13.00;;;2.90;99.90;;;;;;5031121;28;20491;-74
2021/01/31 06:54:26;;;;;;;16.93;11.90;;;2.90;99.90;;;;;;5031626;28;20575;-74
2021/01/31 06:57:30;;;;;;;16.33;11.33;;;2.90;99.90;;;;;;5031414;28;20932;-73
2021/01/31 07:00:16;;;;;;;19.20;12.87;;;2.90;99.90;;;;;;5025433;28;20457;-73
2021/01/31 07:03:16;;;;;;;17.27;12.93;;;2.90;99.90;;;;;;5031527;28;20545;-74
2021/01/31 07:06:01;;;;;;;15.07;11.87;;;2.90;99.90;;;;;;5031502;28;21165;-73
2021/01/31 07:08:58;;;;;;;16.83;13.20;;;2.90;99.90;;;;;;5031392;28;20452;-74
2021/01/31 07:11:35;;;;;;;14.37;11.67;;;2.90;99.90;;;;;;5029042;28;20910;-73
2021/01/31 07:14:37;;;;;;;16.47;10.97;;;2.90;99.90;;;;;;5031148;28;20561;-74
2021/01/31 07:17:13;;;;;;;19.80;13.23;;;2.90;99.90;;;;;;5030003;28;20456;-74
2021/01/31 07:19:42;;;;;;;14.80;10.37;;;2.90;99.90;;;;;;5031030;28;20523;-74
2021/01/31 07:22:14;;;;;;;16.90;12.80;;;3.00;99.90;;;;;;5031225;28;20444;-74
2021/01/31 07:24:49;;;;;;;17.87;13.70;;;3.00;99.90;;;;;;5031068;28;20973;-74
2021/01/31 07:27:23;;;;;;;14.97;11.53;;;3.00;99.90;;;;;;5030871;28;20527;-74
2021/01/31 07:30:01;;;;;;;16.83;12.60;;;3.10;99.90;;;;;;5030507;28;20447;-74
2021/01/31 07:32:54;;;;;;;15.67;12.10;;;3.20;99.90;;;;;;5030865;28;20534;-74
2021/01/31 07:35:25;;;;;;;15.13;11.60;;;3.20;99.90;;;;;;5030559;28;20464;-74
2021/01/31 07:38:02;;;;;;;22.30;12.87;;;3.20;99.90;;;;;;5030844;28;20529;-74
2021/01/31 07:40:31;;;;;;;14.90;11.70;;;3.20;99.90;;;;;;5030170;28;20451;-73
2021/01/31 07:42:58;;;;;;;14.30;10.27;;;3.10;99.90;;;;;;5030773;28;20827;-73
2021/01/31 07:45:26;;;;;;;15.47;12.33;;;3.10;99.90;;;;;;5030323;28;20468;-73
2021/01/31 07:48:35;;;;;;;16.00;12.00;;;3.10;99.90;;;;;;5030550;28;20489;-73
2021/01/31 07:51:03;;;;;;;15.23;11.47;;;3.10;99.90;;;;;;5030012;28;20487;-73
2021/01/31 07:53:33;;;;;;;14.93;11.87;;;3.10;99.90;;;;;;5030671;28;20523;-73
2021/01/31 07:56:31;;;;;;;16.33;12.67;;;3.10;99.90;;;;;;5030594;28;20524;-74
2021/01/31 07:59:00;;;;;;;16.90;12.50;;;3.20;99.90;;;;;;5030587;28;20449;-74
2021/01/31 08:01:50;;;;;;;15.13;11.80;;;3.30;99.90;;;;;;5029884;28;20491;-74
2021/01/31 08:04:26;;;;;;;15.37;11.97;;;3.40;99.90;;;;;;5029628;28;20540;-74
2021/01/31 08:06:55;;;;;;;12.93;10.80;;;3.50;99.90;;;;;;5029917;28;20444;-74
2021/01/31 08:09:51;;;;;;;14.00;11.13;;;3.60;99.90;;;;;;5029951;28;20449;-74
2021/01/31 08:12:18;;;;;;;13.93;11.40;;;3.70;99.90;;;;;;5030139;28;20932;-74
2021/01/31 08:15:08;;;;;;;15.97;11.60;;;3.80;99.90;;;;;;5030113;28;20512;-74
2021/01/31 08:17:44;;;;;;;12.90;10.63;;;3.90;99.90;;;;;;5030483;28;21290;-74
2021/01/31 08:20:42;;;;;;;11.20;10.00;;;3.90;99.90;;;;;;5029724;28;20532;-74
2021/01/31 08:23:47;;;;;;;13.30;10.40;;;4.00;99.90;;;;;;5030123;28;20528;-74
2021/01/31 08:26:45;;;;;;;12.20;10.13;;;4.00;99.90;;;;;;5007665;28;20445;-74
2021/01/31 08:29:30;;;;;;;11.93;10.40;;;4.10;99.90;;;;;;5029535;28;20477;-74
2021/01/31 08:32:08;;;;;;;12.30;10.13;;;4.20;99.90;;;;;;5029901;28;20900;-74
2021/01/31 08:35:04;;;;;;;11.53;9.77;;;4.20;99.90;;;;;;5030010;28;21349;-74
2021/01/31 08:37:31;;;;;;;12.57;10.97;;;4.40;99.90;;;;;;5030141;28;20487;-74
2021/01/31 08:39:58;;;;;;;12.87;9.90;;;4.30;99.90;;;;;;5029824;28;20484;-74
2021/01/31 08:42:25;;;;;;;14.00;10.10;;;4.50;99.90;;;;;;5037690;28;20587;-74
2021/01/31 08:44:59;;;;;;;9.50;8.40;;;4.50;99.90;;;;;;5040223;28;20529;-74
2021/01/31 08:47:25;;;;;;;11.83;10.13;;;4.60;99.90;;;;;;5037428;28;20457;-73
2021/01/31 08:50:03;;;;;;;10.13;9.03;;;4.60;99.90;;;;;;5029731;28;20448;-73
2021/01/31 08:52:30;;;;;;;9.50;8.37;;;4.60;99.90;;;;;;5030020;28;20567;-74
2021/01/31 08:55:05;;;;;;;10.43;9.37;;;4.80;99.90;;;;;;5029771;28;20551;-74
2021/01/31 08:57:32;;;;;;;9.80;8.80;;;4.80;99.90;;;;;;5029657;28;20448;-73
2021/01/31 09:00:06;;;;;;;9.80;8.80;;;4.80;99.90;;;;;;5029539;28;20485;-74
2021/01/31 09:02:34;;;;;;;11.03;9.30;;;4.80;99.90;;;;;;5033625;28;20473;-75
2021/01/31 09:05:13;;;;;;;9.10;8.20;;;4.90;99.90;;;;;;5030021;28;20477;-75
2021/01/31 09:07:42;;;;;;;10.00;9.00;;;4.90;99.90;;;;;;5026437;28;20452;-75
2021/01/31 09:10:14;;;;;;;10.43;9.33;;;4.90;99.90;;;;;;5024282;28;20924;-74
2021/01/31 09:12:41;;;;;;;9.87;8.30;;;4.80;99.90;;;;;;5033232;28;20484;-75
2021/01/31 09:15:13;;;;;;;12.20;10.00;;;4.80;99.90;;;;;;5033475;28;20983;-75
2021/01/31 09:17:40;;;;;;;10.40;9.03;;;4.90;99.90;;;;;;5022463;28;20512;-74
2021/01/31 09:20:18;;;;;;;10.33;9.20;;;4.80;99.90;;;;;;5027626;28;20481;-72
2021/01/31 09:22:45;;;;;;;10.93;8.80;;;4.80;99.90;;;;;;5034254;28;20456;-73
2021/01/31 09:25:15;;;;;;;11.30;9.07;;;4.90;99.90;;;;;;5033530;28;20547;-73
2021/01/31 09:28:00;;;;;;;9.10;8.20;;;4.90;99.90;;;;;;5033460;28;20495;-74
2021/01/31 09:30:29;;;;;;;10.17;8.37;;;5.00;99.90;;;;;;5033024;28;20431;-73
2021/01/31 09:32:58;;;;;;;9.30;8.40;;;4.90;99.90;;;;;;5033384;28;20540;-71
2021/01/31 09:35:27;;;;;;;11.80;8.70;;;4.90;99.90;;;;;;5033217;28;21047;-73
2021/01/31 09:37:55;;;;;;;10.67;9.60;;;5.00;99.90;;;;;;5033291;28;21047;-73
2021/01/31 09:40:22;;;;;;;10.03;8.93;;;5.00;99.90;;;;;;5032546;28;20964;-73
2021/01/31 09:42:49;;;;;;;10.87;9.77;;;5.00;99.90;;;;;;5033191;28;20452;-73
2021/01/31 09:45:42;;;;;;;12.60;10.10;;;4.90;99.90;;;;;;5033151;28;20502;-73
2021/01/31 09:48:10;;;;;;;9.93;8.93;;;4.90;99.90;;;;;;5008625;28;20464;-73
2021/01/31 09:50:37;;;;;;;10.87;9.73;;;4.90;99.90;;;;;;5027468;28;21015;-75
2021/01/31 09:53:05;;;;;;;11.43;9.37;;;5.00;99.90;;;;;;5031141;28;20488;-76
2021/01/31 09:55:41;;;;;;;10.43;9.33;;;5.10;99.90;;;;;;5023940;28;20472;-76
2021/01/31 09:58:20;;;;;;;10.53;9.47;;;5.10;99.90;;;;;;5025911;28;20887;-77
2021/01/31 10:00:48;;;;;;;9.70;8.80;;;5.10;99.90;;;;;;5026863;28;20933;-74
2021/01/31 10:03:25;;;;;;;11.23;10.10;;;5.20;99.90;;;;;;5023985;28;20531;-75
2021/01/31 10:06:06;;;;;;;12.47;9.83;;;5.30;99.90;;;;;;5031948;28;20495;-75
2021/01/31 10:08:34;;;;;;;11.00;9.43;;;5.40;99.90;;;;;;5032163;28;20448;-75
2021/01/31 10:11:38;;;;;;;11.87;10.23;;;5.40;99.90;;;;;;5030905;28;21100;-73
2021/01/31 10:14:06;;;;;;;11.50;10.10;;;5.50;99.90;;;;;;5032091;28;20529;-74
2021/01/31 10:16:35;;;;;;;12.03;10.07;;;5.60;99.90;;;;;;5032563;28;20528;-76
2021/01/31 10:19:13;;;;;;;10.90;9.60;;;5.60;99.90;;;;;;5032441;28;20447;-76
2021/01/31 10:21:42;;;;;;;10.80;9.43;;;5.70;99.90;;;;;;5032626;28;20441;-75
2021/01/31 10:24:25;;;;;;;10.30;9.03;;;5.70;99.90;;;;;;5027727;28;20465;-76
2021/01/31 10:27:04;;;;;;;10.40;8.70;;;5.70;99.90;;;;;;5031815;28;21033;-76
2021/01/31 10:29:32;;;;;;;11.10;9.83;;;5.90;99.90;;;;;;5020403;28;20532;-75
2021/01/31 10:32:22;;;;;;;11.20;10.00;;;6.10;99.90;;;;;;5032008;28;20476;-75
2021/01/31 10:34:48;;;;;;;11.50;10.40;;;6.20;99.90;;;;;;5019146;28;20556;-75
2021/01/31 10:37:17;;;;;;;10.53;9.43;;;6.50;99.90;;;;;;5012212;28;20442;-74
2021/01/31 10:39:46;;;;;;;10.13;9.10;;;6.60;99.90;;;;;;5011812;28;20532;-75
2021/01/31 10:42:12;;;;;;;10.93;9.73;;;6.70;99.90;;;;;;5012430;28;20521;-75
2021/01/31 10:44:39;;;;;;;10.03;9.03;;;6.70;99.90;;;;;;5012137;28;20548;-75
2021/01/31 10:47:05;;;;;;;11.00;9.90;;;6.60;99.90;;;;;;5011821;28;20442;-75
2021/01/31 10:49:32;;;;;;;10.60;9.50;;;6.70;99.90;;;;;;5009952;28;20530;-75
2021/01/31 10:51:59;;;;;;;11.30;9.60;;;6.70;99.90;;;;;;5011203;28;20481;-74
2021/01/31 10:54:25;;;;;;;9.20;8.30;;;6.60;99.90;;;;;;5026760;28;20587;-74
2021/01/31 10:56:52;;;;;;;11.67;9.30;;;6.60;99.90;;;;;;5031548;28;20469;-75
2021/01/31 10:59:18;;;;;;;9.97;8.97;;;6.60;99.90;;;;;;5030591;28;20476;-75
2021/01/31 11:01:46;;;;;;;10.00;8.87;;;6.50;99.90;;;;;;5031268;28;20444;-75
2021/01/31 11:04:14;;;;;;;10.60;8.90;;;6.30;99.90;;;;;;5031499;28;20496;-75
2021/01/31 11:06:42;;;;;;;12.23;10.00;;;6.20;99.90;;;;;;5031240;28;20523;-74
2021/01/31 11:09:10;;;;;;;12.00;9.97;;;6.20;99.90;;;;;;5030885;28;20515;-75
2021/01/31 11:11:37;;;;;;;12.20;8.73;;;6.30;99.90;;;;;;5030036;28;20488;-74
2021/01/31 11:14:03;;;;;;;11.33;10.10;;;6.60;99.90;;;;;;5031090;28;20460;-74
2021/01/31 11:16:30;;;;;;;11.37;9.80;;;6.90;99.90;;;;;;5031089;28;20876;-74
2021/01/31 11:18:56;;;;;;;10.43;9.43;;;7.30;99.90;;;;;;5030528;28;20571;-75
2021/01/31 11:21:25;;;;;;;9.87;8.87;;;7.50;99.90;;;;;;5030231;28;20453;-75
2021/01/31 11:23:54;;;;;;;13.40;9.70;;;7.70;99.90;;;;;;5030527;28;20540;-74
2021/01/31 11:26:21;;;;;;;10.73;9.60;;;7.80;99.90;;;;;;5030964;28;20498;-75
2021/01/31 11:28:47;;;;;;;10.20;8.70;;;8.00;99.90;;;;;;5031039;28;20476;-75
2021/01/31 11:31:14;;;;;;;10.40;9.40;;;8.10;99.90;;;;;;5029731;28;20971;-75
2021/01/31 11:33:40;;;;;;;12.30;10.03;;;8.00;99.90;;;;;;5026785;28;20445;-75
2021/01/31 11:36:07;;;;;;;10.23;9.17;;;8.00;99.90;;;;;;5021880;28;20451;-76
2021/01/31 11:38:34;;;;;;;10.30;9.07;;;8.00;99.90;;;;;;5025847;28;20905;-76
2021/01/31 11:41:01;;;;;;;9.93;8.93;;;7.80;99.90;;;;;;5025881;28;20445;-75
2021/01/31 11:43:28;;;;;;;10.30;8.97;;;7.70;99.90;;;;;;5023534;28;20889;-75
2021/01/31 11:45:54;;;;;;;12.13;10.80;;;7.60;99.90;;;;;;5027680;28;20536;-75
2021/01/31 11:48:21;;;;;;;10.47;9.30;;;7.40;99.90;;;;;;5025005;28;20549;-75
2021/01/31 11:50:47;;;;;;;11.30;10.10;;;7.40;99.90;;;;;;5027695;28;20457;-75
2021/01/31 11:53:15;;;;;;;11.70;9.93;;;7.50;99.90;;;;;;5025911;28;20518;-75
2021/01/31 11:55:41;;;;;;;15.20;10.80;;;7.40;99.90;;;;;;5028697;28;20548;-75
2021/01/31 11:58:10;;;;;;;11.60;9.87;;;7.30;99.90;;;;;;5025376;28;20445;-75
2021/01/31 12:00:37;;;;;;;13.57;11.10;;;7.30;99.90;;;;;;5019496;28;20442;-75
2021/01/31 12:03:04;;;;;;;11.80;10.17;;;7.20;99.90;;;;;;5027388;28;20897;-74
2021/01/31 12:05:31;;;;;;;10.20;9.20;;;7.10;99.90;;;;;;5031100;28;20473;-76
2021/01/31 12:07:57;;;;;;;10.10;9.00;;;7.10;99.90;;;;;;5025415;28;20823;-75
2021/01/31 12:10:25;;;;;;;11.03;8.90;;;7.00;99.90;;;;;;5028187;28;20433;-75
2021/01/31 12:12:52;;;;;;;11.47;10.37;;;7.00;99.90;;;;;;5022671;28;20861;-75
2021/01/31 12:15:20;;;;;;;11.60;9.13;;;7.00;99.90;;;;;;5020236;28;20557;-75
2021/01/31 12:17:46;;;;;;;9.57;8.53;;;7.00;99.90;;;;;;5033521;28;20457;-75
2021/01/31 12:20:14;;;;;;;13.17;9.50;;;7.00;99.90;;;;;;5032758;28;20448;-76
2021/01/31 12:22:41;;;;;;;11.20;10.10;;;7.10;99.90;;;;;;5026913;28;20445;-75
2021/01/31 12:25:13;;;;;;;10.17;9.03;;;7.20;99.90;;;;;;5031250;28;20571;-76
2021/01/31 12:27:40;;;;;;;10.83;9.73;;;7.20;99.90;;;;;;5028593;28;21002;-75
2021/01/31 12:30:08;;;;;;;11.00;8.97;;;7.30;99.90;;;;;;5026828;28;20476;-75
2021/01/31 12:32:35;;;;;;;10.67;9.60;;;7.40;99.90;;;;;;5031144;28;20493;-76
2021/01/31 12:35:02;;;;;;;9.63;8.63;;;7.40;99.90;;;;;;5026271;28;20533;-76
2021/01/31 12:37:28;;;;;;;10.40;9.20;;;7.50;99.90;;;;;;5031837;28;20524;-76
2021/01/31 12:39:56;;;;;;;10.30;8.70;;;7.40;99.90;;;;;;5031255;28;20892;-74
2021/01/31 12:42:22;;;;;;;11.47;9.53;;;7.40;99.90;;;;;;5030426;28;20464;-74
2021/01/31 12:44:49;;;;;;;11.60;9.90;;;7.40;99.90;;;;;;5031041;28;20519;-74
2021/01/31 12:47:16;;;;;;;9.97;8.73;;;7.30;99.90;;;;;;5030645;28;20449;-72
2021/01/31 12:49:44;;;;;;;9.97;8.80;;;7.10;99.90;;;;;;5029649;28;20445;-73
2021/01/31 12:52:11;;;;;;;9.70;8.70;;;7.00;99.90;;;;;;5030611;28;20517;-74
2021/01/31 12:54:37;;;;;;;9.80;8.80;;;6.90;99.90;;;;;;5031463;28;20464;-73
2021/01/31 12:57:04;;;;;;;10.30;9.20;;;6.90;99.90;;;;;;5031210;28;20453;-76
2021/01/31 12:59:30;;;;;;;12.27;10.10;;;6.90;99.90;;;;;;5032254;28;20437;-73
2021/01/31 13:01:57;;;;;;;13.77;10.47;;;6.90;99.90;;;;;;5031356;28;20528;-74
2021/01/31 13:04:23;;;;;;;12.00;9.67;;;6.80;99.90;;;;;;5030833;28;20568;-75
2021/01/31 13:06:51;;;;;;;11.50;9.30;;;6.70;99.90;;;;;;5026508;28;20458;-74